Time;durP1;ratioP1;P1;durP2;ratioP2;P2;SDS_P1;SDS_P2;PMS_P1;PMS_P2;Temp;Humidity;BMP_temperature;BMP_pressure;BME280_temperature;BME280_humidity;BME280_pressure;Samples;Min_cycle;Max_cycle;Signal;HPM_P1;HPM_P2
2021/09/30 00:01:19;;;;;;;14.40;6.18;;;;;;;;;;4995576;28;20038;-43
2021/09/30 00:03:45;;;;;;;9.52;5.47;;;;;;;;;;4995575;28;20056;-42
2021/09/30 00:06:11;;;;;;;14.15;5.75;;;;;;;;;;4978643;28;20033;-43
2021/09/30 00:08:37;;;;;;;16.40;6.38;;;;;;;;;;4995572;28;20030;-43
2021/09/30 00:11:10;;;;;;;13.68;6.47;;;;;;;;;;4995512;28;20018;-42
2021/09/30 00:13:44;;;;;;;10.55;5.90;;;;;;;;;;4995432;28;20394;-41
2021/09/30 00:35:13;;;;;;;8.20;6.00;;;;;;;;;;4994956;28;20060;-42
2021/09/30 00:46:07;;;;;;;16.15;6.32;;;;;;;;;;4995015;28;20044;-42
2021/09/30 00:51:19;;;;;;;18.40;9.07;;;;;;;;;;4994822;28;20045;-42
2021/09/30 00:54:06;;;;;;;14.27;6.30;;;;;;;;;;4994763;28;20034;-42
2021/09/30 01:26:34;;;;;;;13.45;8.43;;;;;;;;;;4915316;28;20028;-42
2021/09/30 02:30:00;;;;;;;13.15;7.15;;;;;;;;;;4918612;29;20031;-42
2021/09/30 02:59:49;;;;;;;12.40;6.45;;;;;;;;;;4956407;28;20462;-42
2021/09/30 03:02:17;;;;;;;11.40;6.57;;;;;;;;;;4956130;29;20054;-43
2021/09/30 03:04:43;;;;;;;17.67;7.18;;;;;;;;;;4969473;28;20039;-42
2021/09/30 03:07:10;;;;;;;12.77;7.57;;;;;;;;;;4977278;28;20167;-42
2021/09/30 03:09:42;;;;;;;11.65;6.80;;;;;;;;;;4977210;28;20030;-42
2021/09/30 03:12:23;;;;;;;12.70;6.90;;;;;;;;;;4977114;28;20065;-42
2021/09/30 03:17:52;;;;;;;17.45;7.82;;;;;;;;;;4880360;29;20418;-44
2021/09/30 03:23:07;;;;;;;12.98;8.77;;;;;;;;;;4880412;29;20113;-42
2021/09/30 03:25:36;;;;;;;13.93;9.05;;;;;;;;;;4879988;29;20437;-42
2021/09/30 03:28:04;;;;;;;18.67;9.77;;;;;;;;;;4879958;29;20482;-42
2021/09/30 03:30:30;;;;;;;14.57;8.40;;;;;;;;;;4879951;29;20164;-41
2021/09/30 03:32:57;;;;;;;13.48;9.35;;;;;;;;;;4879906;29;20033;-45
2021/09/30 03:35:24;;;;;;;18.08;9.82;;;;;;;;;;4894597;29;20048;-42
2021/09/30 03:37:51;;;;;;;17.52;9.15;;;;;;;;;;4898497;29;20033;-42
2021/09/30 03:40:17;;;;;;;18.10;9.68;;;;;;;;;;4898469;29;20039;-43
2021/09/30 03:42:43;;;;;;;12.52;8.23;;;;;;;;;;4898663;29;20080;-44
2021/09/30 03:45:09;;;;;;;11.95;8.18;;;;;;;;;;4898592;29;20573;-42
2021/09/30 03:47:36;;;;;;;13.57;8.05;;;;;;;;;;4898302;29;20126;-43
2021/09/30 03:50:02;;;;;;;17.08;8.18;;;;;;;;;;4898466;29;20492;-42
2021/09/30 03:52:53;;;;;;;13.90;7.45;;;;;;;;;;4898466;29;20033;-43
2021/09/30 04:01:06;;;;;;;13.05;7.93;;;;;;;;;;4898317;29;20047;-49
2021/09/30 04:03:32;;;;;;;13.75;7.80;;;;;;;;;;4897800;29;20032;-46
2021/09/30 04:05:58;;;;;;;12.93;6.90;;;;;;;;;;4897972;29;20345;-44
2021/09/30 04:08:24;;;;;;;12.10;7.30;;;;;;;;;;4898123;29;20112;-42
2021/09/30 04:10:50;;;;;;;10.13;7.13;;;;;;;;;;4897977;29;20029;-42
2021/09/30 04:13:16;;;;;;;9.60;7.03;;;;;;;;;;4897777;29;20047;-42
2021/09/30 04:15:42;;;;;;;13.82;7.10;;;;;;;;;;4897639;29;20069;-50
2021/09/30 04:18:08;;;;;;;15.48;8.20;;;;;;;;;;4897834;29;20490;-43
2021/09/30 04:20:34;;;;;;;13.60;7.45;;;;;;;;;;4897738;29;20386;-43
2021/09/30 04:23:03;;;;;;;10.75;7.68;;;;;;;;;;4897831;29;20456;-41
2021/09/30 04:25:30;;;;;;;15.45;7.95;;;;;;;;;;4897857;29;20040;-48
2021/09/30 04:27:56;;;;;;;14.63;7.70;;;;;;;;;;4897406;29;20100;-42
2021/09/30 04:30:22;;;;;;;16.23;8.27;;;;;;;;;;4897580;29;20649;-42
2021/09/30 04:32:48;;;;;;;13.90;8.00;;;;;;;;;;4952561;28;20039;-42
2021/09/30 04:35:14;;;;;;;18.38;8.43;;;;;;;;;;4989791;28;20145;-43
2021/09/30 04:37:40;;;;;;;18.55;10.25;;;;;;;;;;4995333;28;20366;-43
2021/09/30 04:40:09;;;;;;;19.38;12.00;;;;;;;;;;4995062;28;20022;-43
2021/09/30 04:42:35;;;;;;;23.67;11.00;;;;;;;;;;4994812;28;20040;-42
2021/09/30 04:45:01;;;;;;;24.48;13.05;;;;;;;;;;4994647;28;20093;-44
2021/09/30 04:47:28;;;;;;;20.48;12.70;;;;;;;;;;4994978;28;20493;-42
2021/09/30 04:49:54;;;;;;;25.13;14.70;;;;;;;;;;4995029;28;20026;-42
2021/09/30 04:52:20;;;;;;;18.25;11.20;;;;;;;;;;4994929;28;20080;-43
2021/09/30 04:54:46;;;;;;;25.05;13.25;;;;;;;;;;4994916;28;20054;-42
2021/09/30 04:57:13;;;;;;;18.20;11.95;;;;;;;;;;4994856;28;20027;-42
2021/09/30 04:59:39;;;;;;;17.00;9.85;;;;;;;;;;4994806;28;20050;-43
2021/09/30 05:02:05;;;;;;;15.98;11.00;;;;;;;;;;4994778;28;20061;-42
2021/09/30 05:04:31;;;;;;;20.83;11.38;;;;;;;;;;4994619;28;20026;-41
2021/09/30 05:06:59;;;;;;;19.20;11.43;;;;;;;;;;4994610;28;20068;-42
2021/09/30 05:09:26;;;;;;;22.05;13.30;;;;;;;;;;4994529;28;20035;-43
2021/09/30 05:11:54;;;;;;;26.92;15.40;;;;;;;;;;4994592;28;20493;-43
2021/09/30 05:14:20;;;;;;;24.05;13.10;;;;;;;;;;4994343;28;20153;-42
2021/09/30 05:16:48;;;;;;;28.92;14.70;;;;;;;;;;4994267;28;20037;-46
2021/09/30 05:19:14;;;;;;;22.63;12.98;;;;;;;;;;4994490;28;20024;-42
2021/09/30 05:21:40;;;;;;;22.15;14.25;;;;;;;;;;4994707;28;20034;-43
2021/09/30 05:24:06;;;;;;;25.50;14.73;;;;;;;;;;4994324;28;20023;-48
2021/09/30 05:26:32;;;;;;;23.92;13.57;;;;;;;;;;4994589;28;20057;-50
2021/09/30 05:29:00;;;;;;;26.45;14.90;;;;;;;;;;4994281;28;20031;-42
2021/09/30 05:31:26;;;;;;;20.75;13.55;;;;;;;;;;4994213;28;20483;-43
2021/09/30 05:33:53;;;;;;;37.40;20.65;;;;;;;;;;4994145;28;20053;-41
2021/09/30 05:36:21;;;;;;;37.38;22.85;;;;;;;;;;4994329;28;20030;-42
2021/09/30 05:38:47;;;;;;;49.28;27.13;;;;;;;;;;4994030;28;20057;-42
2021/09/30 05:41:16;;;;;;;29.30;19.30;;;;;;;;;;4994006;28;20034;-42
2021/09/30 05:43:48;;;;;;;25.83;16.90;;;;;;;;;;4993920;28;20029;-42
2021/09/30 05:46:15;;;;;;;27.25;14.20;;;;;;;;;;4994257;28;20030;-42
2021/09/30 05:48:41;;;;;;;22.88;13.88;;;;;;;;;;4994140;28;20085;-42
2021/09/30 05:51:11;;;;;;;27.98;16.38;;;;;;;;;;4993944;28;20022;-42
2021/09/30 05:53:37;;;;;;;22.83;14.82;;;;;;;;;;4994105;28;20419;-42
2021/09/30 05:56:03;;;;;;;28.00;13.40;;;;;;;;;;4993505;28;20022;-42
2021/09/30 05:58:29;;;;;;;28.42;13.50;;;;;;;;;;4993693;28;20023;-43
2021/09/30 06:16:25;;;;;;;23.27;12.48;;;;;;;;;;4993764;28;20034;-50
2021/09/30 06:18:51;;;;;;;22.60;12.40;;;;;;;;;;4993913;28;20030;-43
2021/09/30 06:21:18;;;;;;;21.27;12.55;;;;;;;;;;4993593;28;20070;-42
2021/09/30 06:23:44;;;;;;;26.65;13.98;;;;;;;;;;4993573;28;20486;-42
2021/09/30 06:26:10;;;;;;;22.98;13.93;;;;;;;;;;4993672;28;20054;-47
2021/09/30 06:28:36;;;;;;;22.83;11.88;;;;;;;;;;4993677;28;20023;-42
2021/09/30 06:31:03;;;;;;;24.95;12.05;;;;;;;;;;4993709;28;20029;-43
2021/09/30 06:33:30;;;;;;;19.35;10.23;;;;;;;;;;4993756;28;20482;-41
2021/09/30 06:35:56;;;;;;;17.92;11.13;;;;;;;;;;4976346;28;20059;-42
2021/09/30 06:38:22;;;;;;;19.00;10.48;;;;;;;;;;4993736;28;20026;-42
2021/09/30 06:40:48;;;;;;;18.55;10.18;;;;;;;;;;4993508;28;20034;-42
2021/09/30 06:43:15;;;;;;;17.75;10.38;;;;;;;;;;4976304;28;20470;-42
2021/09/30 06:45:41;;;;;;;18.42;11.00;;;;;;;;;;4993670;28;20030;-44
2021/09/30 06:48:07;;;;;;;19.00;9.98;;;;;;;;;;4993586;28;20030;-44
2021/09/30 06:50:36;;;;;;;16.83;8.55;;;;;;;;;;4993729;28;20025;-42
2021/09/30 06:53:04;;;;;;;25.20;9.10;;;;;;;;;;4993487;28;20026;-45
2021/09/30 06:55:30;;;;;;;16.95;8.50;;;;;;;;;;4993629;28;20371;-43
2021/09/30 06:57:56;;;;;;;17.67;9.18;;;;;;;;;;4993750;28;20053;-42
2021/09/30 07:00:26;;;;;;;15.27;8.15;;;;;;;;;;4993382;28;20026;-42
2021/09/30 07:02:52;;;;;;;14.63;8.32;;;;;;;;;;4993438;28;20030;-42
2021/09/30 07:05:18;;;;;;;11.48;7.63;;;;;;;;;;4993289;28;20018;-43
2021/09/30 07:07:45;;;;;;;13.55;7.47;;;;;;;;;;4996293;28;20109;-43
2021/09/30 07:10:11;;;;;;;14.85;7.55;;;;;;;;;;4997097;28;20026;-45
2021/09/30 07:12:38;;;;;;;15.23;7.70;;;;;;;;;;4996928;28;20382;-43
2021/09/30 07:15:07;;;;;;;16.15;7.65;;;;;;;;;;4996744;28;20026;-50
2021/09/30 07:17:33;;;;;;;12.50;7.45;;;;;;;;;;4996968;28;20024;-44
2021/09/30 07:19:59;;;;;;;13.68;7.05;;;;;;;;;;4996721;28;20022;-42
2021/09/30 07:22:26;;;;;;;17.15;8.23;;;;;;;;;;4996689;28;20038;-44
2021/09/30 07:24:54;;;;;;;13.73;6.72;;;;;;;;;;4996676;28;20018;-50
2021/09/30 07:27:20;;;;;;;14.95;8.20;;;;;;;;;;4978757;28;20041;-41
2021/09/30 07:29:46;;;;;;;10.82;6.30;;;;;;;;;;4996813;28;20026;-42
2021/09/30 07:32:12;;;;;;;13.60;6.28;;;;;;;;;;4996488;28;20368;-41
2021/09/30 07:34:41;;;;;;;12.68;6.55;;;;;;;;;;4996225;28;20053;-42
2021/09/30 07:37:07;;;;;;;15.90;6.13;;;;;;;;;;4996181;28;20387;-41
2021/09/30 07:39:33;;;;;;;22.95;12.25;;;;;;;;;;4978814;28;20026;-44
2021/09/30 07:42:00;;;;;;;11.45;7.68;;;;;;;;;;4996195;28;20042;-43
2021/09/30 07:44:26;;;;;;;13.85;7.78;;;;;;;;;;4995965;28;20019;-43
2021/09/30 07:46:54;;;;;;;14.70;8.20;;;;;;;;;;4996121;28;20053;-40
2021/09/30 07:49:21;;;;;;;11.75;6.20;;;;;;;;;;4996115;28;20054;-45
2021/09/30 07:51:48;;;;;;;15.73;8.25;;;;;;;;;;4995839;28;20031;-42
2021/09/30 07:54:14;;;;;;;16.88;7.40;;;;;;;;;;4996247;28;20049;-41
2021/09/30 07:56:40;;;;;;;16.38;7.30;;;;;;;;;;4995755;28;20050;-41
2021/09/30 07:59:06;;;;;;;14.90;5.93;;;;;;;;;;4995844;28;20037;-42
2021/09/30 08:01:34;;;;;;;15.65;8.55;;;;;;;;;;4995700;28;20042;-42
2021/09/30 08:04:02;;;;;;;12.90;7.13;;;;;;;;;;4995599;28;20163;-41
2021/09/30 08:06:28;;;;;;;12.57;6.00;;;;;;;;;;4995629;28;20026;-42
2021/09/30 08:08:55;;;;;;;9.80;5.70;;;;;;;;;;4995867;28;20076;-43
2021/09/30 08:11:22;;;;;;;12.85;5.40;;;;;;;;;;4995571;28;20053;-41
2021/09/30 08:13:48;;;;;;;10.05;6.30;;;;;;;;;;4995548;28;20058;-42
2021/09/30 08:16:19;;;;;;;38.83;6.13;;;;;;;;;;4995523;28;20081;-43
2021/09/30 08:18:45;;;;;;;25.48;14.07;;;;;;;;;;4994653;28;20046;-42
2021/09/30 08:21:13;;;;;;;11.38;6.57;;;;;;;;;;4995308;28;20101;-42
2021/09/30 08:23:40;;;;;;;20.55;6.78;;;;;;;;;;4995701;28;20023;-42
2021/09/30 08:26:06;;;;;;;22.15;12.18;;;;;;;;;;4995314;28;20117;-42
2021/09/30 08:28:33;;;;;;;10.02;6.38;;;;;;;;;;4995307;28;20026;-42
2021/09/30 08:30:59;;;;;;;21.10;6.28;;;;;;;;;;4995174;28;20069;-42
2021/09/30 08:33:25;;;;;;;16.40;7.43;;;;;;;;;;4995101;28;20376;-43
2021/09/30 08:35:52;;;;;;;12.00;5.90;;;;;;;;;;4994883;28;20054;-44
2021/09/30 08:38:18;;;;;;;23.00;9.68;;;;;;;;;;4995041;28;20506;-42
2021/09/30 08:40:46;;;;;;;21.05;8.85;;;;;;;;;;4994834;28;20117;-47
2021/09/30 08:43:12;;;;;;;20.58;7.43;;;;;;;;;;4994870;28;20044;-43
2021/09/30 08:45:38;;;;;;;13.02;5.65;;;;;;;;;;4994819;28;20386;-42
2021/09/30 08:48:05;;;;;;;12.75;5.53;;;;;;;;;;4994837;28;20023;-43
2021/09/30 08:50:33;;;;;;;14.73;4.88;;;;;;;;;;4994718;28;20022;-43
2021/09/30 08:52:59;;;;;;;11.90;5.38;;;;;;;;;;4994727;28;20534;-42
2021/09/30 08:55:26;;;;;;;9.98;5.28;;;;;;;;;;4994993;28;20030;-47
2021/09/30 08:57:52;;;;;;;12.13;4.85;;;;;;;;;;4994664;28;20033;-47
2021/09/30 09:00:19;;;;;;;17.00;5.32;;;;;;;;;;4994534;28;20117;-42
2021/09/30 09:02:46;;;;;;;12.50;5.07;;;;;;;;;;4994681;28;20399;-43
2021/09/30 09:05:13;;;;;;;14.93;5.25;;;;;;;;;;4994339;28;20105;-46
2021/09/30 09:07:41;;;;;;;16.48;5.57;;;;;;;;;;4994476;28;20030;-42
2021/09/30 09:10:09;;;;;;;11.70;5.20;;;;;;;;;;4994645;28;20507;-50
2021/09/30 09:12:36;;;;;;;15.60;4.90;;;;;;;;;;4994485;28;20029;-47
2021/09/30 09:15:03;;;;;;;14.38;5.40;;;;;;;;;;4994336;28;20026;-49
2021/09/30 09:17:29;;;;;;;13.55;5.60;;;;;;;;;;4994346;28;20445;-46
2021/09/30 09:19:59;;;;;;;11.77;5.25;;;;;;;;;;4994218;28;20027;-43
2021/09/30 09:22:36;;;;;;;8.05;5.00;;;;;;;;;;4994344;28;20064;-43
2021/09/30 09:25:08;;;;;;;14.13;5.35;;;;;;;;;;4994391;28;20018;-46
2021/09/30 09:27:46;;;;;;;11.77;5.68;;;;;;;;;;4994227;28;20030;-47
2021/09/30 09:30:29;;;;;;;12.02;5.68;;;;;;;;;;4993988;28;20026;-52
2021/09/30 09:33:01;;;;;;;16.52;7.00;;;;;;;;;;4993982;28;20034;-46
2021/09/30 09:35:27;;;;;;;12.27;5.70;;;;;;;;;;4994130;28;20506;-44
2021/09/30 09:38:01;;;;;;;21.50;6.22;;;;;;;;;;4994017;28;20022;-45
2021/09/30 09:40:27;;;;;;;22.83;8.32;;;;;;;;;;4994088;28;20023;-42
2021/09/30 09:42:53;;;;;;;13.27;5.90;;;;;;;;;;4993954;28;20068;-43
2021/09/30 09:45:19;;;;;;;11.77;5.35;;;;;;;;;;4993732;28;20030;-45
2021/09/30 09:47:45;;;;;;;15.93;6.35;;;;;;;;;;4993951;28;20031;-47
2021/09/30 09:50:14;;;;;;;13.73;5.43;;;;;;;;;;4993916;28;20073;-43
2021/09/30 09:52:46;;;;;;;14.52;5.50;;;;;;;;;;4993817;28;20032;-43
2021/09/30 09:55:25;;;;;;;13.50;5.28;;;;;;;;;;4993854;28;20474;-42
2021/09/30 09:58:00;;;;;;;15.80;5.30;;;;;;;;;;4993526;28;20465;-45
2021/09/30 10:00:27;;;;;;;15.82;5.28;;;;;;;;;;4993905;28;20379;-49
2021/09/30 10:02:53;;;;;;;37.47;6.57;;;;;;;;;;4993826;28;20062;-46
2021/09/30 10:05:20;;;;;;;15.30;6.60;;;;;;;;;;4993805;28;20379;-43
2021/09/30 10:07:49;;;;;;;17.58;7.43;;;;;;;;;;4993699;28;20026;-43
2021/09/30 10:10:16;;;;;;;14.18;6.10;;;;;;;;;;4993651;28;20027;-43
2021/09/30 10:12:43;;;;;;;16.65;5.90;;;;;;;;;;4993829;28;20027;-43
2021/09/30 10:15:09;;;;;;;17.85;6.60;;;;;;;;;;4993581;28;20494;-52
2021/09/30 10:17:36;;;;;;;14.75;6.05;;;;;;;;;;4993739;28;20038;-47
2021/09/30 10:20:03;;;;;;;16.27;7.15;;;;;;;;;;4993731;28;20045;-44
2021/09/30 10:22:29;;;;;;;12.30;7.15;;;;;;;;;;4993717;28;20034;-43
2021/09/30 10:24:57;;;;;;;14.18;6.53;;;;;;;;;;4993735;28;20019;-45
2021/09/30 10:27:23;;;;;;;18.33;6.82;;;;;;;;;;4993625;28;20022;-48
2021/09/30 10:29:49;;;;;;;16.83;7.72;;;;;;;;;;4993700;28;20030;-44
2021/09/30 10:32:17;;;;;;;15.40;7.78;;;;;;;;;;4993776;28;20513;-44
2021/09/30 10:34:44;;;;;;;26.48;9.18;;;;;;;;;;4993527;28;20074;-43
2021/09/30 10:37:18;;;;;;;17.65;7.50;;;;;;;;;;4993627;28;20029;-43
2021/09/30 10:39:48;;;;;;;14.63;7.93;;;;;;;;;;4993661;28;20530;-44
2021/09/30 10:42:40;;;;;;;18.77;8.18;;;;;;;;;;4987810;28;20854;-44
2021/09/30 10:45:19;;;;;;;18.83;7.47;;;;;;;;;;4997369;28;20034;-43
2021/09/30 10:47:45;;;;;;;23.15;8.30;;;;;;;;;;4997598;28;20018;-44
2021/09/30 10:50:11;;;;;;;25.13;9.68;;;;;;;;;;4997289;28;20030;-43
2021/09/30 10:52:51;;;;;;;19.67;7.05;;;;;;;;;;4997362;28;20038;-49
2021/09/30 10:55:17;;;;;;;17.00;6.57;;;;;;;;;;4979854;28;20034;-44
2021/09/30 10:57:44;;;;;;;14.23;6.53;;;;;;;;;;4997433;28;20049;-44
2021/09/30 11:00:12;;;;;;;15.15;6.00;;;;;;;;;;4997052;28;20023;-45
2021/09/30 11:02:57;;;;;;;16.95;6.63;;;;;;;;;;4997118;28;20058;-43
2021/09/30 11:05:23;;;;;;;13.13;5.55;;;;;;;;;;4996987;28;20505;-48
2021/09/30 11:08:09;;;;;;;18.73;6.53;;;;;;;;;;4996918;28;20053;-45
2021/09/30 11:10:35;;;;;;;15.75;6.22;;;;;;;;;;4979322;28;20029;-45
2021/09/30 11:13:19;;;;;;;13.52;5.90;;;;;;;;;;4996847;28;20084;-47
2021/09/30 11:16:08;;;;;;;19.65;6.15;;;;;;;;;;4996738;28;20027;-46
2021/09/30 11:18:40;;;;;;;13.45;5.97;;;;;;;;;;4984450;28;20096;-43
2021/09/30 11:21:24;;;;;;;21.58;5.93;;;;;;;;;;4996909;28;20026;-48
2021/09/30 11:23:51;;;;;;;11.10;6.50;;;;;;;;;;4996680;28;20034;-44
2021/09/30 11:26:17;;;;;;;20.02;6.90;;;;;;;;;;4996630;28;20030;-48
2021/09/30 11:28:43;;;;;;;15.50;6.68;;;;;;;;;;4996436;28;20106;-44
2021/09/30 11:31:25;;;;;;;13.63;6.97;;;;;;;;;;4996362;28;20033;-45
2021/09/30 11:33:52;;;;;;;20.75;7.40;;;;;;;;;;4996167;28;20097;-45
2021/09/30 11:36:18;;;;;;;15.05;7.47;;;;;;;;;;4987874;28;20125;-43
2021/09/30 11:38:44;;;;;;;14.88;6.97;;;;;;;;;;4987985;28;20018;-49
2021/09/30 11:41:10;;;;;;;16.13;7.03;;;;;;;;;;4986356;28;20055;-45
2021/09/30 11:43:37;;;;;;;18.92;8.15;;;;;;;;;;4986964;28;20285;-46
2021/09/30 11:46:23;;;;;;;15.65;7.65;;;;;;;;;;4985153;28;20051;-44
2021/09/30 11:48:55;;;;;;;16.38;7.03;;;;;;;;;;4992684;28;20023;-48
2021/09/30 11:51:29;;;;;;;14.60;6.90;;;;;;;;;;4986257;28;20038;-43
2021/09/30 11:53:55;;;;;;;15.50;5.72;;;;;;;;;;4984071;28;20487;-43
2021/09/30 11:56:21;;;;;;;15.95;6.07;;;;;;;;;;4986058;28;20521;-43
2021/09/30 11:59:05;;;;;;;15.10;6.88;;;;;;;;;;4986987;28;20064;-47
2021/09/30 12:01:35;;;;;;;15.05;6.07;;;;;;;;;;4986670;28;20036;-46
2021/09/30 12:04:01;;;;;;;16.27;5.65;;;;;;;;;;4985851;28;20059;-43
2021/09/30 12:06:40;;;;;;;19.17;6.78;;;;;;;;;;4984745;28;20046;-46
2021/09/30 12:09:08;;;;;;;14.30;6.70;;;;;;;;;;4984933;28;20050;-46
2021/09/30 12:11:37;;;;;;;16.65;6.55;;;;;;;;;;4986541;28;20479;-49
2021/09/30 12:14:05;;;;;;;12.48;5.32;;;;;;;;;;4968926;28;20023;-45
2021/09/30 12:16:31;;;;;;;16.08;6.47;;;;;;;;;;4984215;28;20030;-43
2021/09/30 12:19:01;;;;;;;15.75;6.10;;;;;;;;;;4985937;28;20105;-46
2021/09/30 12:21:38;;;;;;;13.73;5.82;;;;;;;;;;4986509;28;20038;-44
2021/09/30 12:24:05;;;;;;;19.40;6.10;;;;;;;;;;4985939;28;20383;-44
2021/09/30 12:26:31;;;;;;;13.40;6.45;;;;;;;;;;4984369;28;20390;-44
2021/09/30 12:29:00;;;;;;;13.82;5.70;;;;;;;;;;4985659;28;20018;-44
2021/09/30 12:31:27;;;;;;;12.55;5.40;;;;;;;;;;4986031;28;20033;-48
2021/09/30 12:33:53;;;;;;;14.93;6.20;;;;;;;;;;4986860;28;20042;-44
2021/09/30 12:36:20;;;;;;;15.40;5.90;;;;;;;;;;4984119;28;20090;-45
2021/09/30 12:38:59;;;;;;;12.90;6.13;;;;;;;;;;4985459;28;20060;-44
2021/09/30 12:41:26;;;;;;;13.05;7.00;;;;;;;;;;4984861;28;20427;-48
2021/09/30 12:43:53;;;;;;;13.65;6.50;;;;;;;;;;4984404;28;20015;-47
2021/09/30 12:46:19;;;;;;;17.88;6.53;;;;;;;;;;4985013;28;20038;-47
2021/09/30 12:48:49;;;;;;;11.35;5.90;;;;;;;;;;4983204;28;20034;-42
2021/09/30 12:51:16;;;;;;;17.40;7.35;;;;;;;;;;4983974;28;20034;-43
2021/09/30 12:53:51;;;;;;;15.40;6.60;;;;;;;;;;4986292;28;20026;-44
2021/09/30 12:56:19;;;;;;;17.63;6.35;;;;;;;;;;4986716;28;20031;-43
2021/09/30 12:58:47;;;;;;;15.25;5.80;;;;;;;;;;4994798;28;20034;-43
2021/09/30 13:01:26;;;;;;;16.77;7.13;;;;;;;;;;4994887;28;20034;-45
2021/09/30 13:04:05;;;;;;;14.10;7.18;;;;;;;;;;4981431;28;20463;-43
2021/09/30 13:06:31;;;;;;;16.75;6.88;;;;;;;;;;4983586;28;20101;-43
2021/09/30 13:08:57;;;;;;;23.48;7.40;;;;;;;;;;4984689;28;20018;-43
2021/09/30 13:11:27;;;;;;;18.92;6.82;;;;;;;;;;4984976;28;20070;-44
2021/09/30 13:14:12;;;;;;;15.68;7.20;;;;;;;;;;4983763;28;20475;-44
2021/09/30 13:16:38;;;;;;;21.38;7.85;;;;;;;;;;4984418;28;20027;-46
2021/09/30 13:19:04;;;;;;;16.77;8.02;;;;;;;;;;4983622;28;20018;-43
2021/09/30 13:21:30;;;;;;;20.38;8.98;;;;;;;;;;4985374;28;20034;-44
2021/09/30 13:23:56;;;;;;;17.42;8.35;;;;;;;;;;4983891;28;20464;-44
2021/09/30 13:26:22;;;;;;;16.75;7.70;;;;;;;;;;4984111;28;20480;-44
2021/09/30 13:28:48;;;;;;;20.67;8.27;;;;;;;;;;4985149;28;20042;-48
2021/09/30 13:31:14;;;;;;;10.63;6.75;;;;;;;;;;4983509;28;20023;-42
2021/09/30 13:33:40;;;;;;;19.73;8.02;;;;;;;;;;4994324;28;20027;-45
2021/09/30 13:36:06;;;;;;;19.10;9.65;;;;;;;;;;4994112;28;20471;-47
2021/09/30 13:38:32;;;;;;;20.50;8.57;;;;;;;;;;4994210;28;20033;-47
2021/09/30 13:40:58;;;;;;;16.98;7.78;;;;;;;;;;4994216;28;20089;-48
2021/09/30 13:43:24;;;;;;;19.48;7.97;;;;;;;;;;4994060;28;20031;-46
2021/09/30 13:45:51;;;;;;;17.55;7.78;;;;;;;;;;4994004;28;20058;-48
2021/09/30 13:48:17;;;;;;;20.83;9.00;;;;;;;;;;4994087;28;20034;-42
2021/09/30 13:50:43;;;;;;;19.98;8.05;;;;;;;;;;4993877;28;20109;-44
2021/09/30 13:53:09;;;;;;;24.63;7.47;;;;;;;;;;4993983;28;20034;-47
2021/09/30 13:55:35;;;;;;;13.77;6.93;;;;;;;;;;4994285;28;20029;-44
2021/09/30 13:58:02;;;;;;;33.95;9.65;;;;;;;;;;4994172;28;20034;-43
2021/09/30 14:00:28;;;;;;;36.15;12.30;;;;;;;;;;4993992;28;20489;-48
2021/09/30 14:02:54;;;;;;;21.67;9.48;;;;;;;;;;4993803;28;20070;-47
2021/09/30 14:05:20;;;;;;;27.40;12.70;;;;;;;;;;4993798;28;20041;-44
2021/09/30 14:07:47;;;;;;;29.60;11.00;;;;;;;;;;4993917;28;20033;-44
2021/09/30 14:10:16;;;;;;;71.53;34.92;;;;;;;;;;4994045;28;20466;-44
2021/09/30 14:12:43;;;;;;;55.80;25.45;;;;;;;;;;4994044;28;20031;-44
2021/09/30 14:15:10;;;;;;;16.33;8.73;;;;;;;;;;4993844;28;20478;-43
2021/09/30 14:17:38;;;;;;;19.42;7.47;;;;;;;;;;4996860;28;20034;-43
2021/09/30 14:20:05;;;;;;;15.73;7.20;;;;;;;;;;4992553;28;20105;-44
2021/09/30 14:22:31;;;;;;;14.45;7.68;;;;;;;;;;4988472;28;20043;-44
2021/09/30 14:24:57;;;;;;;17.48;7.55;;;;;;;;;;4986558;28;20423;-43
2021/09/30 14:27:24;;;;;;;20.23;8.15;;;;;;;;;;4987722;28;20097;-44
2021/09/30 14:29:50;;;;;;;16.95;9.88;;;;;;;;;;4988461;28;20427;-47
2021/09/30 14:32:16;;;;;;;33.85;14.65;;;;;;;;;;4986300;28;20526;-47
2021/09/30 14:34:42;;;;;;;20.60;8.65;;;;;;;;;;4981888;28;20065;-43
2021/09/30 14:37:08;;;;;;;27.20;9.00;;;;;;;;;;4977594;28;20033;-44
2021/09/30 14:39:35;;;;;;;27.83;13.30;;;;;;;;;;4977385;28;20090;-48
2021/09/30 14:42:01;;;;;;;26.00;11.93;;;;;;;;;;4978125;28;20398;-43
2021/09/30 14:44:27;;;;;;;32.42;13.70;;;;;;;;;;4977923;28;20375;-44
2021/09/30 14:46:54;;;;;;;21.38;10.90;;;;;;;;;;4977990;28;20110;-45
2021/09/30 14:49:20;;;;;;;34.25;12.07;;;;;;;;;;4977936;28;20023;-44
2021/09/30 14:51:46;;;;;;;168.35;91.47;;;;;;;;;;4961306;28;20034;-43
2021/09/30 14:54:12;;;;;;;525.63;345.55;;;;;;;;;;4948739;28;20054;-44
2021/09/30 14:56:38;;;;;;;329.23;202.43;;;;;;;;;;4951398;28;20098;-43
2021/09/30 14:59:04;;;;;;;254.38;144.55;;;;;;;;;;4950336;28;20031;-43
2021/09/30 15:01:33;;;;;;;138.18;84.45;;;;;;;;;;4950117;28;20061;-46
2021/09/30 15:03:59;;;;;;;106.20;60.13;;;;;;;;;;4949326;28;20026;-43
2021/09/30 15:06:33;;;;;;;100.43;57.63;;;;;;;;;;4949950;28;20034;-42
2021/09/30 15:08:59;;;;;;;56.47;30.85;;;;;;;;;;4949694;28;20055;-43
2021/09/30 15:11:25;;;;;;;45.17;22.75;;;;;;;;;;4948398;28;20191;-43
2021/09/30 15:13:51;;;;;;;40.30;24.52;;;;;;;;;;4948069;28;20118;-42
2021/09/30 15:16:19;;;;;;;48.22;28.83;;;;;;;;;;4948262;28;20023;-42
2021/09/30 15:21:27;;;;;;;58.03;35.58;;;;;;;;;;4949878;28;20038;-41
2021/09/30 15:24:02;;;;;;;40.13;24.70;;;;;;;;;;4949995;28;20376;-43
2021/09/30 15:26:31;;;;;;;35.63;20.27;;;;;;;;;;4949188;28;20495;-44
2021/09/30 15:28:57;;;;;;;24.88;13.23;;;;;;;;;;4949516;28;20035;-44
2021/09/30 15:31:24;;;;;;;27.17;14.07;;;;;;;;;;4947775;28;20031;-42
2021/09/30 15:33:50;;;;;;;28.25;14.02;;;;;;;;;;4953367;28;20045;-43
2021/09/30 15:36:17;;;;;;;18.80;11.27;;;;;;;;;;4969378;28;20660;-44
2021/09/30 15:38:43;;;;;;;36.13;19.40;;;;;;;;;;4969819;28;20027;-43
2021/09/30 15:41:10;;;;;;;35.45;19.67;;;;;;;;;;4968840;28;20066;-48
2021/09/30 15:43:37;;;;;;;24.70;12.55;;;;;;;;;;4969625;28;20141;-46
2021/09/30 15:46:03;;;;;;;38.88;14.50;;;;;;;;;;4969557;28;20053;-45
2021/09/30 15:48:31;;;;;;;31.42;13.80;;;;;;;;;;4969001;28;20110;-43
2021/09/30 15:50:58;;;;;;;27.10;9.90;;;;;;;;;;4969312;28;20037;-46
2021/09/30 15:53:24;;;;;;;25.10;14.65;;;;;;;;;;4969416;28;20502;-45
2021/09/30 15:55:54;;;;;;;67.57;36.53;;;;;;;;;;4969593;28;20077;-44
2021/09/30 15:58:20;;;;;;;116.82;67.53;;;;;;;;;;4969357;28;20022;-44
2021/09/30 16:00:46;;;;;;;107.93;55.63;;;;;;;;;;4968524;28;20026;-45
2021/09/30 16:03:12;;;;;;;116.93;66.90;;;;;;;;;;4968952;28;20026;-44
2021/09/30 16:05:39;;;;;;;108.70;68.10;;;;;;;;;;4969075;28;20588;-44
2021/09/30 16:08:05;;;;;;;131.13;76.07;;;;;;;;;;4969415;28;20149;-44
2021/09/30 16:10:34;;;;;;;141.43;89.22;;;;;;;;;;4968587;28;20038;-43
2021/09/30 16:13:00;;;;;;;131.23;79.80;;;;;;;;;;4969306;28;20030;-44
2021/09/30 16:15:26;;;;;;;124.03;75.35;;;;;;;;;;4969116;28;20043;-44
2021/09/30 16:17:54;;;;;;;118.97;73.25;;;;;;;;;;4968550;28;20022;-44
2021/09/30 16:20:20;;;;;;;177.05;113.70;;;;;;;;;;4968943;28;20146;-43
2021/09/30 16:22:47;;;;;;;132.52;78.15;;;;;;;;;;4969059;28;20042;-44
2021/09/30 16:25:13;;;;;;;152.00;93.65;;;;;;;;;;4969802;28;20588;-43
2021/09/30 16:27:39;;;;;;;84.63;52.53;;;;;;;;;;4968905;28;20120;-47
2021/09/30 16:30:07;;;;;;;72.10;43.20;;;;;;;;;;4968134;28;20022;-44
2021/09/30 16:32:34;;;;;;;90.60;58.90;;;;;;;;;;4968733;28;20035;-44
2021/09/30 16:35:00;;;;;;;161.02;99.10;;;;;;;;;;4968221;28;20047;-43
2021/09/30 16:37:26;;;;;;;110.43;64.80;;;;;;;;;;4968479;28;20126;-43
2021/09/30 16:39:52;;;;;;;101.90;57.95;;;;;;;;;;4967199;28;20050;-43
2021/09/30 16:42:18;;;;;;;80.72;46.38;;;;;;;;;;4967313;28;20128;-46
2021/09/30 16:44:44;;;;;;;76.90;47.30;;;;;;;;;;4967673;28;20031;-45
2021/09/30 16:47:10;;;;;;;69.70;41.05;;;;;;;;;;4968281;28;20113;-45
2021/09/30 16:49:36;;;;;;;82.82;50.60;;;;;;;;;;4968195;28;20023;-42
2021/09/30 16:52:03;;;;;;;60.03;34.92;;;;;;;;;;4968174;28;20104;-44
2021/09/30 16:54:29;;;;;;;50.78;27.48;;;;;;;;;;4968120;28;20027;-42
2021/09/30 16:56:55;;;;;;;45.38;25.80;;;;;;;;;;4967712;28;20041;-44
2021/09/30 16:59:21;;;;;;;60.38;31.67;;;;;;;;;;4967625;28;20046;-43
2021/09/30 17:01:47;;;;;;;45.22;23.20;;;;;;;;;;4967740;28;20057;-42
2021/09/30 17:04:17;;;;;;;44.65;27.15;;;;;;;;;;4968061;28;20040;-43
2021/09/30 17:06:43;;;;;;;50.45;28.30;;;;;;;;;;4967953;28;20032;-42
2021/09/30 17:09:10;;;;;;;45.30;29.60;;;;;;;;;;4967416;28;20057;-42
2021/09/30 17:11:36;;;;;;;36.85;25.83;;;;;;;;;;4967044;28;20026;-42
2021/09/30 17:14:03;;;;;;;50.25;32.60;;;;;;;;;;4967537;28;20037;-43
2021/09/30 17:16:29;;;;;;;51.05;36.03;;;;;;;;;;4967649;28;20077;-43
2021/09/30 17:18:55;;;;;;;56.28;32.83;;;;;;;;;;4968116;28;20101;-47
2021/09/30 17:21:21;;;;;;;40.58;25.15;;;;;;;;;;4967868;28;20115;-52
2021/09/30 17:23:48;;;;;;;38.28;22.70;;;;;;;;;;4966972;28;20026;-42
2021/09/30 17:26:15;;;;;;;30.90;18.52;;;;;;;;;;4967417;28;20037;-45